sensor_id;sensor_type;location;lat;lon;timestamp;P1;durP1;ratioP1;P2;durP2;ratioP2
68438;SDS011;55421;51.600;5.718;2023-04-16T00:01:21;9.30;;;3.30;;
68438;SDS011;55421;51.600;5.718;2023-04-16T00:03:47;14.00;;;4.00;;
68438;SDS011;55421;51.600;5.718;2023-04-16T00:06:14;9.90;;;3.20;;
68438;SDS011;55421;51.600;5.718;2023-04-16T00:08:41;7.30;;;3.30;;
68438;SDS011;55421;51.600;5.718;2023-04-16T00:11:08;7.70;;;3.00;;
68438;SDS011;55421;51.600;5.718;2023-04-16T00:13:35;8.80;;;3.20;;
68438;SDS011;55421;51.600;5.718;2023-04-16T00:16:02;9.10;;;3.00;;
68438;SDS011;55421;51.600;5.718;2023-04-16T00:18:29;6.80;;;2.70;;
68438;SDS011;55421;51.600;5.718;2023-04-16T00:20:56;5.20;;;2.50;;
68438;SDS011;55421;51.600;5.718;2023-04-16T00:23:22;6.90;;;2.70;;
68438;SDS011;55421;51.600;5.718;2023-04-16T00:25:50;7.90;;;3.10;;
68438;SDS011;55421;51.600;5.718;2023-04-16T00:28:18;7.20;;;2.90;;
68438;SDS011;55421;51.600;5.718;2023-04-16T00:30:45;12.40;;;2.90;;
68438;SDS011;55421;51.600;5.718;2023-04-16T00:33:11;7.00;;;2.60;;
68438;SDS011;55421;51.600;5.718;2023-04-16T00:35:38;7.10;;;3.00;;
68438;SDS011;55421;51.600;5.718;2023-04-16T00:38:04;5.90;;;3.00;;
68438;SDS011;55421;51.600;5.718;2023-04-16T00:40:31;8.90;;;2.80;;
68438;SDS011;55421;51.600;5.718;2023-04-16T00:42:57;13.60;;;2.90;;
68438;SDS011;55421;51.600;5.718;2023-04-16T00:45:24;7.40;;;3.40;;
68438;SDS011;55421;51.600;5.718;2023-04-16T00:47:50;6.20;;;2.40;;
68438;SDS011;55421;51.600;5.718;2023-04-16T00:50:17;13.50;;;3.10;;
68438;SDS011;55421;51.600;5.718;2023-04-16T00:52:47;10.30;;;2.90;;
68438;SDS011;55421;51.600;5.718;2023-04-16T00:55:15;7.90;;;2.90;;
68438;SDS011;55421;51.600;5.718;2023-04-16T00:57:44;10.60;;;3.40;;
68438;SDS011;55421;51.600;5.718;2023-04-16T01:00:11;6.50;;;2.60;;
68438;SDS011;55421;51.600;5.718;2023-04-16T01:02:38;8.90;;;3.20;;
68438;SDS011;55421;51.600;5.718;2023-04-16T01:05:05;9.60;;;3.70;;
68438;SDS011;55421;51.600;5.718;2023-04-16T01:07:31;8.50;;;2.90;;
68438;SDS011;55421;51.600;5.718;2023-04-16T01:09:58;9.10;;;3.10;;
68438;SDS011;55421;51.600;5.718;2023-04-16T01:12:24;8.40;;;3.50;;
68438;SDS011;55421;51.600;5.718;2023-04-16T01:14:51;8.50;;;3.80;;
68438;SDS011;55421;51.600;5.718;2023-04-16T01:17:18;6.60;;;3.30;;
68438;SDS011;55421;51.600;5.718;2023-04-16T01:19:44;6.80;;;2.80;;
68438;SDS011;55421;51.600;5.718;2023-04-16T01:22:10;14.60;;;4.90;;
68438;SDS011;55421;51.600;5.718;2023-04-16T01:24:37;13.50;;;4.70;;
68438;SDS011;55421;51.600;5.718;2023-04-16T01:27:04;8.80;;;3.60;;
68438;SDS011;55421;51.600;5.718;2023-04-16T01:29:31;9.70;;;4.30;;
68438;SDS011;55421;51.600;5.718;2023-04-16T01:31:57;9.60;;;3.90;;
68438;SDS011;55421;51.600;5.718;2023-04-16T01:34:24;12.90;;;5.10;;
68438;SDS011;55421;51.600;5.718;2023-04-16T01:36:50;11.20;;;3.80;;
68438;SDS011;55421;51.600;5.718;2023-04-16T01:39:17;10.10;;;4.10;;
68438;SDS011;55421;51.600;5.718;2023-04-16T01:41:44;11.20;;;4.10;;
68438;SDS011;55421;51.600;5.718;2023-04-16T01:44:11;11.50;;;5.30;;
68438;SDS011;55421;51.600;5.718;2023-04-16T01:46:38;11.90;;;4.60;;
68438;SDS011;55421;51.600;5.718;2023-04-16T01:49:05;12.90;;;4.60;;
68438;SDS011;55421;51.600;5.718;2023-04-16T01:51:32;4.70;;;2.40;;
68438;SDS011;55421;51.600;5.718;2023-04-16T01:54:00;13.20;;;4.90;;
68438;SDS011;55421;51.600;5.718;2023-04-16T01:56:27;14.20;;;5.50;;
68438;SDS011;55421;51.600;5.718;2023-04-16T01:58:54;9.10;;;4.10;;
68438;SDS011;55421;51.600;5.718;2023-04-16T02:01:21;5.70;;;2.80;;
68438;SDS011;55421;51.600;5.718;2023-04-16T02:03:48;9.40;;;4.10;;
68438;SDS011;55421;51.600;5.718;2023-04-16T02:06:16;9.30;;;5.20;;
68438;SDS011;55421;51.600;5.718;2023-04-16T02:08:42;13.40;;;4.70;;
68438;SDS011;55421;51.600;5.718;2023-04-16T02:11:09;9.70;;;4.40;;
68438;SDS011;55421;51.600;5.718;2023-04-16T02:13:36;11.30;;;5.30;;
68438;SDS011;55421;51.600;5.718;2023-04-16T02:16:02;8.30;;;5.10;;
68438;SDS011;55421;51.600;5.718;2023-04-16T02:18:29;11.30;;;4.40;;
68438;SDS011;55421;51.600;5.718;2023-04-16T02:20:57;6.80;;;3.70;;
68438;SDS011;55421;51.600;5.718;2023-04-16T02:23:27;8.70;;;4.30;;
68438;SDS011;55421;51.600;5.718;2023-04-16T02:25:53;7.50;;;4.70;;
68438;SDS011;55421;51.600;5.718;2023-04-16T02:28:20;8.30;;;3.70;;
68438;SDS011;55421;51.600;5.718;2023-04-16T02:30:47;9.50;;;4.50;;
68438;SDS011;55421;51.600;5.718;2023-04-16T02:33:13;12.20;;;4.40;;
68438;SDS011;55421;51.600;5.718;2023-04-16T02:35:40;12.80;;;5.10;;
68438;SDS011;55421;51.600;5.718;2023-04-16T02:38:07;6.10;;;3.70;;
68438;SDS011;55421;51.600;5.718;2023-04-16T02:40:34;9.80;;;4.50;;
68438;SDS011;55421;51.600;5.718;2023-04-16T02:43:01;8.60;;;3.90;;
68438;SDS011;55421;51.600;5.718;2023-04-16T02:45:27;8.50;;;3.40;;
68438;SDS011;55421;51.600;5.718;2023-04-16T02:47:56;7.50;;;3.40;;
68438;SDS011;55421;51.600;5.718;2023-04-16T02:50:23;14.30;;;4.80;;
68438;SDS011;55421;51.600;5.718;2023-04-16T02:52:49;7.80;;;4.00;;
68438;SDS011;55421;51.600;5.718;2023-04-16T02:55:16;10.80;;;3.80;;
68438;SDS011;55421;51.600;5.718;2023-04-16T02:57:43;9.30;;;4.30;;
68438;SDS011;55421;51.600;5.718;2023-04-16T03:00:10;11.70;;;4.50;;
68438;SDS011;55421;51.600;5.718;2023-04-16T03:02:37;11.00;;;5.20;;
68438;SDS011;55421;51.600;5.718;2023-04-16T03:05:04;9.60;;;4.20;;
68438;SDS011;55421;51.600;5.718;2023-04-16T03:07:30;9.60;;;4.90;;
68438;SDS011;55421;51.600;5.718;2023-04-16T03:09:57;9.20;;;5.30;;
68438;SDS011;55421;51.600;5.718;2023-04-16T03:12:24;10.80;;;5.80;;
68438;SDS011;55421;51.600;5.718;2023-04-16T03:14:50;9.50;;;5.10;;
68438;SDS011;55421;51.600;5.718;2023-04-16T03:17:19;9.90;;;5.20;;
68438;SDS011;55421;51.600;5.718;2023-04-16T03:19:46;16.50;;;5.80;;
68438;SDS011;55421;51.600;5.718;2023-04-16T03:22:13;12.60;;;5.20;;
68438;SDS011;55421;51.600;5.718;2023-04-16T03:24:39;10.40;;;5.30;;
68438;SDS011;55421;51.600;5.718;2023-04-16T03:27:06;9.20;;;4.40;;
68438;SDS011;55421;51.600;5.718;2023-04-16T03:29:32;15.00;;;5.00;;
68438;SDS011;55421;51.600;5.718;2023-04-16T03:32:01;17.30;;;6.70;;
68438;SDS011;55421;51.600;5.718;2023-04-16T03:34:27;16.00;;;6.30;;
68438;SDS011;55421;51.600;5.718;2023-04-16T03:36:54;11.30;;;5.00;;
68438;SDS011;55421;51.600;5.718;2023-04-16T03:39:20;13.20;;;6.70;;
68438;SDS011;55421;51.600;5.718;2023-04-16T03:41:47;14.20;;;6.00;;
68438;SDS011;55421;51.600;5.718;2023-04-16T03:44:13;14.70;;;6.60;;
68438;SDS011;55421;51.600;5.718;2023-04-16T03:46:40;14.30;;;6.30;;
68438;SDS011;55421;51.600;5.718;2023-04-16T03:49:06;11.50;;;6.00;;
68438;SDS011;55421;51.600;5.718;2023-04-16T03:51:33;14.90;;;7.50;;
68438;SDS011;55421;51.600;5.718;2023-04-16T03:53:59;12.90;;;6.80;;
68438;SDS011;55421;51.600;5.718;2023-04-16T03:56:25;16.80;;;6.40;;
68438;SDS011;55421;51.600;5.718;2023-04-16T03:58:52;15.30;;;7.10;;
68438;SDS011;55421;51.600;5.718;2023-04-16T04:01:18;13.60;;;6.30;;
68438;SDS011;55421;51.600;5.718;2023-04-16T04:03:45;15.20;;;7.00;;
68438;SDS011;55421;51.600;5.718;2023-04-16T04:06:11;15.20;;;7.00;;
68438;SDS011;55421;51.600;5.718;2023-04-16T04:08:38;17.80;;;6.80;;
68438;SDS011;55421;51.600;5.718;2023-04-16T04:11:04;16.40;;;6.90;;
68438;SDS011;55421;51.600;5.718;2023-04-16T04:13:31;15.60;;;7.60;;
68438;SDS011;55421;51.600;5.718;2023-04-16T04:15:57;12.70;;;4.90;;
68438;SDS011;55421;51.600;5.718;2023-04-16T04:18:23;12.90;;;5.80;;
68438;SDS011;55421;51.600;5.718;2023-04-16T04:20:51;18.40;;;8.50;;
68438;SDS011;55421;51.600;5.718;2023-04-16T04:23:19;18.10;;;8.20;;
68438;SDS011;55421;51.600;5.718;2023-04-16T04:25:45;16.40;;;8.00;;
68438;SDS011;55421;51.600;5.718;2023-04-16T04:28:12;16.80;;;7.40;;
68438;SDS011;55421;51.600;5.718;2023-04-16T04:30:38;12.10;;;5.40;;
68438;SDS011;55421;51.600;5.718;2023-04-16T04:33:05;22.10;;;8.80;;
68438;SDS011;55421;51.600;5.718;2023-04-16T04:35:32;18.20;;;8.40;;
68438;SDS011;55421;51.600;5.718;2023-04-16T04:38:00;20.10;;;8.60;;
68438;SDS011;55421;51.600;5.718;2023-04-16T04:40:28;19.70;;;10.20;;
68438;SDS011;55421;51.600;5.718;2023-04-16T04:42:54;22.40;;;9.60;;
68438;SDS011;55421;51.600;5.718;2023-04-16T04:45:21;22.40;;;10.30;;
68438;SDS011;55421;51.600;5.718;2023-04-16T04:47:51;23.80;;;10.60;;
68438;SDS011;55421;51.600;5.718;2023-04-16T04:50:18;22.50;;;10.10;;
68438;SDS011;55421;51.600;5.718;2023-04-16T04:52:44;28.30;;;11.60;;
68438;SDS011;55421;51.600;5.718;2023-04-16T04:55:11;22.00;;;9.50;;
68438;SDS011;55421;51.600;5.718;2023-04-16T04:57:39;26.00;;;10.90;;
68438;SDS011;55421;51.600;5.718;2023-04-16T05:00:06;18.20;;;7.30;;
68438;SDS011;55421;51.600;5.718;2023-04-16T05:02:34;23.00;;;10.80;;
68438;SDS011;55421;51.600;5.718;2023-04-16T05:05:00;18.10;;;8.80;;
68438;SDS011;55421;51.600;5.718;2023-04-16T05:07:27;22.70;;;10.60;;
68438;SDS011;55421;51.600;5.718;2023-04-16T05:09:53;21.50;;;10.10;;
68438;SDS011;55421;51.600;5.718;2023-04-16T05:12:19;30.30;;;12.40;;
68438;SDS011;55421;51.600;5.718;2023-04-16T05:14:46;23.30;;;10.70;;
68438;SDS011;55421;51.600;5.718;2023-04-16T05:17:12;23.50;;;10.80;;
68438;SDS011;55421;51.600;5.718;2023-04-16T05:19:39;27.20;;;10.80;;
68438;SDS011;55421;51.600;5.718;2023-04-16T05:22:05;23.60;;;10.50;;
68438;SDS011;55421;51.600;5.718;2023-04-16T05:24:32;19.20;;;9.30;;
68438;SDS011;55421;51.600;5.718;2023-04-16T05:26:58;23.50;;;10.30;;
68438;SDS011;55421;51.600;5.718;2023-04-16T05:29:25;17.50;;;8.70;;
68438;SDS011;55421;51.600;5.718;2023-04-16T05:31:52;25.00;;;11.60;;
68438;SDS011;55421;51.600;5.718;2023-04-16T05:34:18;17.50;;;7.20;;
68438;SDS011;55421;51.600;5.718;2023-04-16T05:36:45;26.90;;;12.10;;
68438;SDS011;55421;51.600;5.718;2023-04-16T05:39:12;26.40;;;11.40;;
68438;SDS011;55421;51.600;5.718;2023-04-16T05:41:38;25.20;;;11.60;;
68438;SDS011;55421;51.600;5.718;2023-04-16T05:44:05;23.20;;;11.80;;
68438;SDS011;55421;51.600;5.718;2023-04-16T05:46:31;27.50;;;11.30;;
68438;SDS011;55421;51.600;5.718;2023-04-16T05:48:58;23.60;;;11.00;;
68438;SDS011;55421;51.600;5.718;2023-04-16T05:51:24;28.60;;;11.90;;
68438;SDS011;55421;51.600;5.718;2023-04-16T05:53:52;27.90;;;11.10;;
68438;SDS011;55421;51.600;5.718;2023-04-16T05:56:19;24.60;;;11.50;;
68438;SDS011;55421;51.600;5.718;2023-04-16T05:58:47;29.10;;;12.00;;
68438;SDS011;55421;51.600;5.718;2023-04-16T06:01:13;28.80;;;12.80;;
68438;SDS011;55421;51.600;5.718;2023-04-16T06:03:39;26.20;;;10.80;;
68438;SDS011;55421;51.600;5.718;2023-04-16T06:06:06;25.40;;;11.10;;
68438;SDS011;55421;51.600;5.718;2023-04-16T06:08:34;26.30;;;10.80;;
68438;SDS011;55421;51.600;5.718;2023-04-16T06:11:00;24.40;;;11.00;;
68438;SDS011;55421;51.600;5.718;2023-04-16T06:13:27;26.00;;;11.40;;
68438;SDS011;55421;51.600;5.718;2023-04-16T06:15:53;22.20;;;11.00;;
68438;SDS011;55421;51.600;5.718;2023-04-16T06:18:20;27.90;;;11.40;;
68438;SDS011;55421;51.600;5.718;2023-04-16T06:20:46;27.70;;;11.00;;
68438;SDS011;55421;51.600;5.718;2023-04-16T06:23:13;24.10;;;9.90;;
68438;SDS011;55421;51.600;5.718;2023-04-16T06:25:39;22.50;;;11.30;;
68438;SDS011;55421;51.600;5.718;2023-04-16T06:28:05;25.00;;;12.20;;
68438;SDS011;55421;51.600;5.718;2023-04-16T06:30:32;29.20;;;12.10;;
68438;SDS011;55421;51.600;5.718;2023-04-16T06:32:58;21.20;;;10.80;;
68438;SDS011;55421;51.600;5.718;2023-04-16T06:35:25;25.20;;;11.30;;
68438;SDS011;55421;51.600;5.718;2023-04-16T06:37:51;26.80;;;11.30;;
68438;SDS011;55421;51.600;5.718;2023-04-16T06:40:18;24.50;;;9.80;;
68438;SDS011;55421;51.600;5.718;2023-04-16T06:42:44;22.60;;;10.70;;
68438;SDS011;55421;51.600;5.718;2023-04-16T06:45:11;26.00;;;9.40;;
68438;SDS011;55421;51.600;5.718;2023-04-16T06:47:38;31.20;;;12.40;;
68438;SDS011;55421;51.600;5.718;2023-04-16T06:50:05;25.50;;;12.00;;
68438;SDS011;55421;51.600;5.718;2023-04-16T06:52:32;25.70;;;11.50;;
68438;SDS011;55421;51.600;5.718;2023-04-16T06:54:59;29.20;;;13.50;;
68438;SDS011;55421;51.600;5.718;2023-04-16T06:57:25;32.00;;;13.70;;
68438;SDS011;55421;51.600;5.718;2023-04-16T06:59:51;28.50;;;12.10;;
68438;SDS011;55421;51.600;5.718;2023-04-16T07:02:18;28.00;;;12.00;;
68438;SDS011;55421;51.600;5.718;2023-04-16T07:04:44;24.00;;;11.80;;
68438;SDS011;55421;51.600;5.718;2023-04-16T07:07:11;26.10;;;13.00;;
68438;SDS011;55421;51.600;5.718;2023-04-16T07:09:37;27.80;;;12.40;;
68438;SDS011;55421;51.600;5.718;2023-04-16T07:12:04;28.20;;;13.20;;
68438;SDS011;55421;51.600;5.718;2023-04-16T07:14:32;30.00;;;12.80;;
68438;SDS011;55421;51.600;5.718;2023-04-16T07:16:58;28.70;;;13.10;;
68438;SDS011;55421;51.600;5.718;2023-04-16T07:19:25;27.50;;;13.10;;
68438;SDS011;55421;51.600;5.718;2023-04-16T07:21:55;25.40;;;12.80;;
68438;SDS011;55421;51.600;5.718;2023-04-16T07:24:22;29.90;;;13.40;;
68438;SDS011;55421;51.600;5.718;2023-04-16T07:26:48;31.20;;;14.30;;
68438;SDS011;55421;51.600;5.718;2023-04-16T07:29:15;31.40;;;13.70;;
68438;SDS011;55421;51.600;5.718;2023-04-16T07:31:41;31.60;;;13.60;;
68438;SDS011;55421;51.600;5.718;2023-04-16T07:34:07;31.00;;;13.60;;
68438;SDS011;55421;51.600;5.718;2023-04-16T07:36:34;24.70;;;13.10;;
68438;SDS011;55421;51.600;5.718;2023-04-16T07:39:01;26.40;;;13.40;;
68438;SDS011;55421;51.600;5.718;2023-04-16T07:41:27;31.20;;;13.60;;
68438;SDS011;55421;51.600;5.718;2023-04-16T07:43:57;25.80;;;13.50;;
68438;SDS011;55421;51.600;5.718;2023-04-16T07:46:23;27.50;;;13.20;;
68438;SDS011;55421;51.600;5.718;2023-04-16T07:48:50;26.60;;;14.30;;
68438;SDS011;55421;51.600;5.718;2023-04-16T07:51:16;27.80;;;13.10;;
68438;SDS011;55421;51.600;5.718;2023-04-16T07:53:43;29.70;;;13.30;;
68438;SDS011;55421;51.600;5.718;2023-04-16T07:56:09;30.50;;;14.20;;
68438;SDS011;55421;51.600;5.718;2023-04-16T07:58:36;31.50;;;14.00;;
68438;SDS011;55421;51.600;5.718;2023-04-16T08:01:02;29.30;;;14.00;;
68438;SDS011;55421;51.600;5.718;2023-04-16T08:03:29;32.30;;;14.60;;
68438;SDS011;55421;51.600;5.718;2023-04-16T08:05:55;25.10;;;12.30;;
68438;SDS011;55421;51.600;5.718;2023-04-16T08:08:22;32.60;;;14.90;;
68438;SDS011;55421;51.600;5.718;2023-04-16T08:10:48;32.60;;;14.60;;
68438;SDS011;55421;51.600;5.718;2023-04-16T08:13:15;29.60;;;14.50;;
68438;SDS011;55421;51.600;5.718;2023-04-16T08:15:41;29.30;;;14.40;;
68438;SDS011;55421;51.600;5.718;2023-04-16T08:18:08;32.10;;;14.10;;
68438;SDS011;55421;51.600;5.718;2023-04-16T08:20:38;32.20;;;15.20;;
68438;SDS011;55421;51.600;5.718;2023-04-16T08:23:04;33.20;;;14.50;;
68438;SDS011;55421;51.600;5.718;2023-04-16T08:25:31;30.30;;;14.60;;
68438;SDS011;55421;51.600;5.718;2023-04-16T08:27:57;32.20;;;14.60;;
68438;SDS011;55421;51.600;5.718;2023-04-16T08:30:24;29.10;;;15.00;;
68438;SDS011;55421;51.600;5.718;2023-04-16T08:32:51;33.60;;;14.70;;
68438;SDS011;55421;51.600;5.718;2023-04-16T08:35:18;31.00;;;14.70;;
68438;SDS011;55421;51.600;5.718;2023-04-16T08:37:44;39.40;;;15.40;;
68438;SDS011;55421;51.600;5.718;2023-04-16T08:40:11;27.70;;;15.40;;
68438;SDS011;55421;51.600;5.718;2023-04-16T08:42:41;37.80;;;15.70;;
68438;SDS011;55421;51.600;5.718;2023-04-16T08:45:18;37.70;;;15.00;;
68438;SDS011;55421;51.600;5.718;2023-04-16T08:47:52;27.90;;;13.40;;
68438;SDS011;55421;51.600;5.718;2023-04-16T08:50:23;30.80;;;14.50;;
68438;SDS011;55421;51.600;5.718;2023-04-16T08:52:52;34.40;;;14.90;;
68438;SDS011;55421;51.600;5.718;2023-04-16T08:55:47;29.80;;;13.80;;
68438;SDS011;55421;51.600;5.718;2023-04-16T08:58:16;29.20;;;14.70;;
68438;SDS011;55421;51.600;5.718;2023-04-16T09:00:45;35.60;;;15.00;;
68438;SDS011;55421;51.600;5.718;2023-04-16T09:03:12;32.50;;;14.60;;
68438;SDS011;55421;51.600;5.718;2023-04-16T09:05:39;30.80;;;15.80;;
68438;SDS011;55421;51.600;5.718;2023-04-16T09:08:08;34.70;;;15.70;;
68438;SDS011;55421;51.600;5.718;2023-04-16T09:10:34;30.00;;;14.50;;
68438;SDS011;55421;51.600;5.718;2023-04-16T09:13:01;32.20;;;15.40;;
68438;SDS011;55421;51.600;5.718;2023-04-16T09:15:27;34.50;;;15.70;;
68438;SDS011;55421;51.600;5.718;2023-04-16T09:17:54;35.60;;;16.20;;
68438;SDS011;55421;51.600;5.718;2023-04-16T09:20:22;34.20;;;14.70;;
68438;SDS011;55421;51.600;5.718;2023-04-16T09:22:49;37.70;;;16.90;;
68438;SDS011;55421;51.600;5.718;2023-04-16T09:25:19;30.00;;;15.50;;
68438;SDS011;55421;51.600;5.718;2023-04-16T09:27:48;36.10;;;15.70;;
68438;SDS011;55421;51.600;5.718;2023-04-16T09:30:24;32.50;;;15.20;;
68438;SDS011;55421;51.600;5.718;2023-04-16T09:33:12;31.20;;;14.70;;
68438;SDS011;55421;51.600;5.718;2023-04-16T09:35:52;36.80;;;15.40;;
68438;SDS011;55421;51.600;5.718;2023-04-16T09:38:19;29.40;;;13.50;;
68438;SDS011;55421;51.600;5.718;2023-04-16T09:40:46;31.00;;;15.60;;
68438;SDS011;55421;51.600;5.718;2023-04-16T09:43:16;35.40;;;16.70;;
68438;SDS011;55421;51.600;5.718;2023-04-16T09:45:51;34.00;;;15.20;;
68438;SDS011;55421;51.600;5.718;2023-04-16T09:48:32;32.30;;;16.90;;
68438;SDS011;55421;51.600;5.718;2023-04-16T09:50:59;28.20;;;15.10;;
68438;SDS011;55421;51.600;5.718;2023-04-16T09:53:30;30.00;;;15.30;;
68438;SDS011;55421;51.600;5.718;2023-04-16T09:55:58;34.50;;;15.60;;
68438;SDS011;55421;51.600;5.718;2023-04-16T09:58:30;34.80;;;16.60;;
68438;SDS011;55421;51.600;5.718;2023-04-16T10:03:31;35.80;;;16.90;;
68438;SDS011;55421;51.600;5.718;2023-04-16T10:06:16;35.90;;;17.00;;
68438;SDS011;55421;51.600;5.718;2023-04-16T10:08:48;30.30;;;14.90;;
68438;SDS011;55421;51.600;5.718;2023-04-16T10:11:22;34.20;;;16.40;;
68438;SDS011;55421;51.600;5.718;2023-04-16T10:13:49;33.70;;;15.70;;
68438;SDS011;55421;51.600;5.718;2023-04-16T10:16:16;32.80;;;15.60;;
68438;SDS011;55421;51.600;5.718;2023-04-16T10:18:44;31.10;;;15.50;;
68438;SDS011;55421;51.600;5.718;2023-04-16T10:21:12;25.70;;;12.60;;
68438;SDS011;55421;51.600;5.718;2023-04-16T10:23:42;35.90;;;17.60;;
68438;SDS011;55421;51.600;5.718;2023-04-16T10:26:09;32.60;;;17.00;;
68438;SDS011;55421;51.600;5.718;2023-04-16T10:28:36;36.80;;;18.50;;
68438;SDS011;55421;51.600;5.718;2023-04-16T10:31:04;33.80;;;17.00;;
68438;SDS011;55421;51.600;5.718;2023-04-16T10:33:34;37.70;;;17.80;;
68438;SDS011;55421;51.600;5.718;2023-04-16T10:38:44;35.20;;;15.10;;
68438;SDS011;55421;51.600;5.718;2023-04-16T10:41:15;35.40;;;16.30;;
68438;SDS011;55421;51.600;5.718;2023-04-16T10:43:43;35.70;;;17.80;;
68438;SDS011;55421;51.600;5.718;2023-04-16T10:46:30;37.30;;;17.50;;
68438;SDS011;55421;51.600;5.718;2023-04-16T10:49:02;30.70;;;15.90;;
68438;SDS011;55421;51.600;5.718;2023-04-16T10:52:02;23.00;;;11.30;;
68438;SDS011;55421;51.600;5.718;2023-04-16T10:54:35;34.50;;;16.50;;
68438;SDS011;55421;51.600;5.718;2023-04-16T10:57:13;36.70;;;17.50;;
68438;SDS011;55421;51.600;5.718;2023-04-16T10:59:42;35.60;;;18.10;;
68438;SDS011;55421;51.600;5.718;2023-04-16T11:02:14;32.00;;;17.40;;
68438;SDS011;55421;51.600;5.718;2023-04-16T11:04:44;27.10;;;15.30;;
68438;SDS011;55421;51.600;5.718;2023-04-16T11:17:39;28.50;;;15.20;;
68438;SDS011;55421;51.600;5.718;2023-04-16T11:20:20;29.30;;;15.90;;
68438;SDS011;55421;51.600;5.718;2023-04-16T11:22:53;32.80;;;17.20;;
68438;SDS011;55421;51.600;5.718;2023-04-16T11:25:21;30.60;;;17.00;;
68438;SDS011;55421;51.600;5.718;2023-04-16T11:27:50;24.70;;;14.00;;
68438;SDS011;55421;51.600;5.718;2023-04-16T11:30:27;31.20;;;17.70;;
68438;SDS011;55421;51.600;5.718;2023-04-16T11:32:54;31.30;;;17.50;;
68438;SDS011;55421;51.600;5.718;2023-04-16T11:35:21;32.30;;;17.80;;
68438;SDS011;55421;51.600;5.718;2023-04-16T11:37:48;21.30;;;12.40;;
68438;SDS011;55421;51.600;5.718;2023-04-16T11:40:14;27.70;;;16.90;;
68438;SDS011;55421;51.600;5.718;2023-04-16T11:42:41;26.10;;;15.50;;
68438;SDS011;55421;51.600;5.718;2023-04-16T11:45:10;30.80;;;17.40;;
68438;SDS011;55421;51.600;5.718;2023-04-16T11:47:48;26.50;;;16.60;;
68438;SDS011;55421;51.600;5.718;2023-04-16T11:50:25;27.00;;;16.80;;
68438;SDS011;55421;51.600;5.718;2023-04-16T11:52:56;26.90;;;14.50;;
68438;SDS011;55421;51.600;5.718;2023-04-16T11:55:28;25.30;;;14.50;;
68438;SDS011;55421;51.600;5.718;2023-04-16T11:57:54;25.60;;;15.50;;
68438;SDS011;55421;51.600;5.718;2023-04-16T12:00:21;28.70;;;16.00;;
68438;SDS011;55421;51.600;5.718;2023-04-16T12:02:50;26.30;;;15.10;;
68438;SDS011;55421;51.600;5.718;2023-04-16T12:05:29;23.80;;;12.30;;
68438;SDS011;55421;51.600;5.718;2023-04-16T12:08:02;29.10;;;16.60;;
68438;SDS011;55421;51.600;5.718;2023-04-16T12:10:32;25.60;;;12.60;;
68438;SDS011;55421;51.600;5.718;2023-04-16T12:15:47;29.10;;;16.60;;
68438;SDS011;55421;51.600;5.718;2023-04-16T12:18:16;28.30;;;15.90;;
68438;SDS011;55421;51.600;5.718;2023-04-16T12:20:44;25.30;;;15.10;;
68438;SDS011;55421;51.600;5.718;2023-04-16T12:23:26;27.20;;;14.30;;
68438;SDS011;55421;51.600;5.718;2023-04-16T12:25:55;22.90;;;13.70;;
68438;SDS011;55421;51.600;5.718;2023-04-16T12:28:31;17.90;;;11.10;;
68438;SDS011;55421;51.600;5.718;2023-04-16T12:30:59;19.90;;;10.80;;
68438;SDS011;55421;51.600;5.718;2023-04-16T12:33:27;23.20;;;14.20;;
68438;SDS011;55421;51.600;5.718;2023-04-16T12:35:54;24.10;;;14.30;;
68438;SDS011;55421;51.600;5.718;2023-04-16T12:38:21;25.60;;;13.80;;
68438;SDS011;55421;51.600;5.718;2023-04-16T12:40:47;21.30;;;11.60;;
68438;SDS011;55421;51.600;5.718;2023-04-16T12:43:14;22.00;;;12.10;;
68438;SDS011;55421;51.600;5.718;2023-04-16T12:45:41;24.10;;;12.70;;
68438;SDS011;55421;51.600;5.718;2023-04-16T12:48:07;21.20;;;12.30;;
68438;SDS011;55421;51.600;5.718;2023-04-16T12:50:34;22.00;;;12.30;;
68438;SDS011;55421;51.600;5.718;2023-04-16T12:53:00;17.30;;;10.90;;
68438;SDS011;55421;51.600;5.718;2023-04-16T12:55:27;18.20;;;11.50;;
68438;SDS011;55421;51.600;5.718;2023-04-16T12:57:53;20.50;;;13.80;;
68438;SDS011;55421;51.600;5.718;2023-04-16T13:00:20;17.40;;;12.20;;
68438;SDS011;55421;51.600;5.718;2023-04-16T13:02:47;15.70;;;10.40;;
68438;SDS011;55421;51.600;5.718;2023-04-16T13:05:14;17.80;;;11.30;;
68438;SDS011;55421;51.600;5.718;2023-04-16T13:07:41;20.10;;;11.80;;
68438;SDS011;55421;51.600;5.718;2023-04-16T13:10:09;19.00;;;11.00;;
68438;SDS011;55421;51.600;5.718;2023-04-16T13:12:36;18.50;;;10.00;;
68438;SDS011;55421;51.600;5.718;2023-04-16T13:15:02;19.40;;;10.30;;
68438;SDS011;55421;51.600;5.718;2023-04-16T13:17:29;13.80;;;9.00;;
68438;SDS011;55421;51.600;5.718;2023-04-16T13:19:56;14.10;;;10.10;;
68438;SDS011;55421;51.600;5.718;2023-04-16T13:22:23;11.80;;;8.60;;
68438;SDS011;55421;51.600;5.718;2023-04-16T13:24:49;14.90;;;10.00;;
68438;SDS011;55421;51.600;5.718;2023-04-16T13:27:15;14.30;;;10.40;;
68438;SDS011;55421;51.600;5.718;2023-04-16T13:29:43;15.00;;;9.70;;
68438;SDS011;55421;51.600;5.718;2023-04-16T13:32:09;13.30;;;8.60;;
68438;SDS011;55421;51.600;5.718;2023-04-16T13:34:38;16.80;;;10.50;;
68438;SDS011;55421;51.600;5.718;2023-04-16T13:37:05;14.60;;;9.70;;
68438;SDS011;55421;51.600;5.718;2023-04-16T13:39:32;13.00;;;7.50;;
68438;SDS011;55421;51.600;5.718;2023-04-16T13:41:59;9.60;;;6.90;;
68438;SDS011;55421;51.600;5.718;2023-04-16T13:44:25;14.40;;;9.30;;
68438;SDS011;55421;51.600;5.718;2023-04-16T13:46:51;14.10;;;9.20;;
68438;SDS011;55421;51.600;5.718;2023-04-16T13:49:19;13.90;;;10.10;;
68438;SDS011;55421;51.600;5.718;2023-04-16T13:51:48;15.60;;;9.50;;
68438;SDS011;55421;51.600;5.718;2023-04-16T13:54:16;17.20;;;10.30;;
68438;SDS011;55421;51.600;5.718;2023-04-16T13:56:42;12.40;;;9.20;;
68438;SDS011;55421;51.600;5.718;2023-04-16T13:59:09;14.50;;;9.60;;
68438;SDS011;55421;51.600;5.718;2023-04-16T14:01:35;17.60;;;10.40;;
68438;SDS011;55421;51.600;5.718;2023-04-16T14:04:02;16.90;;;11.60;;
68438;SDS011;55421;51.600;5.718;2023-04-16T14:06:32;15.20;;;11.00;;
68438;SDS011;55421;51.600;5.718;2023-04-16T14:08:59;17.70;;;11.40;;
68438;SDS011;55421;51.600;5.718;2023-04-16T14:11:26;15.20;;;10.10;;
68438;SDS011;55421;51.600;5.718;2023-04-16T14:13:53;14.40;;;9.80;;
68438;SDS011;55421;51.600;5.718;2023-04-16T14:16:20;10.20;;;8.10;;
68438;SDS011;55421;51.600;5.718;2023-04-16T14:18:47;14.50;;;10.00;;
68438;SDS011;55421;51.600;5.718;2023-04-16T14:21:13;16.10;;;11.10;;
68438;SDS011;55421;51.600;5.718;2023-04-16T14:23:40;13.00;;;9.50;;
68438;SDS011;55421;51.600;5.718;2023-04-16T14:26:07;17.00;;;10.90;;
68438;SDS011;55421;51.600;5.718;2023-04-16T14:28:33;15.00;;;10.30;;
68438;SDS011;55421;51.600;5.718;2023-04-16T14:31:00;17.00;;;10.70;;
68438;SDS011;55421;51.600;5.718;2023-04-16T14:33:27;17.80;;;11.60;;
68438;SDS011;55421;51.600;5.718;2023-04-16T14:35:53;21.50;;;12.80;;
68438;SDS011;55421;51.600;5.718;2023-04-16T14:38:20;19.70;;;11.30;;
68438;SDS011;55421;51.600;5.718;2023-04-16T14:40:47;19.60;;;12.40;;
68438;SDS011;55421;51.600;5.718;2023-04-16T14:43:14;17.30;;;11.80;;
68438;SDS011;55421;51.600;5.718;2023-04-16T14:45:41;12.30;;;8.00;;
68438;SDS011;55421;51.600;5.718;2023-04-16T14:48:07;19.50;;;12.70;;
68438;SDS011;55421;51.600;5.718;2023-04-16T14:50:34;17.70;;;10.70;;